Caguas, PR (00727)

7:35 PM AST on November 27, 2014 (GMT -0400)
Cañabon, Caguas | Change Station
CLOSE
Current Station
Personal Weather Station
Location: Caguas, CAGUAS
Elevation: 272 ft
Nearby Weather Stations

Elev 272 ft 18.24 °N, 66.05 °W | Updated 7 seconds ago

Partly Cloudy
Partly Cloudy
72.5 °F
Feels Like 72.5 °F
N
0.0
Wind Variable Wind from NW
Gusts 0.0 mph

Today
High -- | Low -- °F
--% Chance of Precip.
Yesterday
High -- | Low -- °F
Precip. -- in
6:37 AM 5:46 PM
Waxing Crescent, 34% visible
Pressure 29.95 in
Visibility 10.0 miles
Clouds Few 3200 ft
Dew Point 71 °F
Humidity 96%
Rainfall 0.04 in
Snow Depth Not available.
UV 0.0 out of 12
Pollen Not available.
Air Quality Not available.
Flu Activity Not available.
METAR TJSJ 272256Z 08005KT 10SM FEW032 26/22 A2995 RMK AO2 SLP140 T02560217

More Conditions Fewer Conditions

Pressure 29.95 in
Visibility 10.0 miles
Clouds Few 3200 ft
Dew Point 71 °F
Humidity 96%
Rainfall 0.04 in
Snow Depth Not available.
UV 0.0 out of 12
Pollen Not available.
Air Quality Not available.
Flu Activity Not available.
METAR TJSJ 272256Z 08005KT 10SM FEW032 26/22 A2995 RMK AO2 SLP140 T02560217

More Conditions Fewer Conditions

10-Day Weather Forecast

Almanac

Astronomy

Nov. 27, 2014 Rise Set
Actual Time
Civil Twilight
Nautical Twilight
Astronomical Twilight
Moon
Length of Visible Light
Length of Day
Tomorrow will be .
, % of the Moon is Illuminated

Today's Extremes

State Highs State Lows

Community

WunderPhotos

Upload Photos

1,774,139 photos uploaded!

WunderBlogs® & News

Nearby

Air Quality

  Air Quality AQ Index Pollutant
Not available.

Snow Depth

Station Depth Elevation

Earthquake Activity

City Distance Mag. Time & Date
Minimum magnitude displayed is 2.5.

Coastal Water Temperatures

Place Temperature

Nearby Weather Stations